Perry, Utah
Current Conditions -  °F | °C
As of 3:15 AM on Saturday 20 Dec 2014 (Local Time) from KBMC Reporting Station
Overcast Overcast  
Wind Chill: 37°   Ceiling: 700
Heat Index: 37°   Visibility: 5mi
Dew Point: 35°   Wind: 0mph
Humidity: 91%   Direction: NA
Pressure: 30.14"   Gusts: NA
Location:  41.4833°N, 112.095°W
Report Text: KBMC 201015Z AUTO 00000KT 5SM BKN007 BKN016 OVC022 03/02 A3014 RMK AO1 T00290015
Loading
Personal Weather Stations






























Interactive Weather Map New forecast layout! Learn more

10-Day Weather Forecast

Advertisements
Track Severe Weather on mobile